Time;durP1;ratioP1;P1;durP2;ratioP2;P2;SDS_P1;SDS_P2;PMS_P1;PMS_P2;Temp;Humidity;BMP_temperature;BMP_pressure;BME280_temperature;BME280_humidity;BME280_pressure;Samples;Min_cycle;Max_cycle;Signal;HPM_P1;HPM_P2
2021/04/10 00:00:56;;;;;;;1.75;1.00;;;;;;;18.03;51.95;101478.41;6359430;22;20007;-78
2021/04/10 00:03:23;;;;;;;2.63;1.00;;;;;;;18.03;51.83;101474.91;6360146;22;20019;-79
2021/04/10 00:05:51;;;;;;;2.22;1.00;;;;;;;18.03;51.97;101478.41;6333741;22;20289;-78
2021/04/10 00:08:18;;;;;;;1.45;0.90;;;;;;;18.01;51.90;101467.13;6362547;22;20011;-78
2021/04/10 00:10:45;;;;;;;2.17;1.00;;;;;;;18.01;51.75;101464.50;6362511;22;20007;-78
2021/04/10 00:13:10;;;;;;;1.73;0.80;;;;;;;18.03;51.76;101460.19;6330871;22;20012;-78
2021/04/10 00:16:24;;;;;;;2.30;1.00;;;;;;;18.03;52.01;101456.69;6325470;22;20051;-78
2021/04/10 00:18:51;;;;;;;2.67;0.93;;;;;;;18.01;51.91;101455.84;6295722;22;19988;-78
2021/04/10 00:21:19;;;;;;;1.90;0.80;;;;;;;18.01;51.77;101467.13;6282527;22;20007;-78
2021/04/10 00:23:46;;;;;;;2.75;0.88;;;;;;;18.00;51.72;101461.91;6277855;22;20014;-78
2021/04/10 00:26:37;;;;;;;2.58;0.85;;;;;;;18.00;51.88;101469.72;6327211;22;20007;-78
2021/04/10 00:31:50;;;;;;;2.70;1.10;;;;;;;17.99;51.77;101465.38;6361354;22;20015;-78
2021/04/10 00:34:51;;;;;;;3.42;1.15;;;;;;;18.00;51.91;101467.13;6335859;22;20040;-77
2021/04/10 00:37:18;;;;;;;1.65;0.80;;;;;;;17.98;51.79;101467.09;6354614;22;20011;-78
2021/04/10 00:39:43;;;;;;;1.42;0.75;;;;;;;17.98;51.78;101468.84;6309729;22;20438;-78
2021/04/10 00:42:47;;;;;;;1.30;0.80;;;;;;;17.99;51.67;101478.41;6339547;22;19995;-78
2021/04/10 00:45:21;;;;;;;1.65;0.73;;;;;;;17.96;51.65;101466.22;6334573;22;20044;-78
2021/04/10 00:47:48;;;;;;;1.58;0.70;;;;;;;17.95;51.75;101469.72;6316842;22;20031;-78
2021/04/10 00:50:15;;;;;;;1.77;0.98;;;;;;;17.96;51.55;101474.03;6304560;22;20011;-78
2021/04/10 00:52:48;;;;;;;2.22;0.77;;;;;;;17.94;51.83;101474.94;6308355;22;20026;-79
2021/04/10 00:55:15;;;;;;;2.05;0.90;;;;;;;17.96;51.65;101476.66;6366158;22;20043;-78
2021/04/10 00:57:40;;;;;;;1.83;0.80;;;;;;;17.96;51.87;101470.59;6364470;22;20122;-77
2021/04/10 01:00:09;;;;;;;1.70;0.75;;;;;;;17.96;51.67;101478.41;6366476;22;20011;-78
2021/04/10 01:02:53;;;;;;;2.53;1.20;;;;;;;17.96;51.64;101481.84;6367168;22;20005;-78
2021/04/10 01:05:19;;;;;;;2.35;0.88;;;;;;;17.95;51.67;101481.88;6360353;22;20007;-78
2021/04/10 01:07:46;;;;;;;2.45;1.23;;;;;;;17.95;51.79;101477.53;6332136;22;20096;-78
2021/04/10 01:10:17;;;;;;;1.58;0.80;;;;;;;17.93;51.85;101468.84;6359673;22;20007;-78
2021/04/10 01:13:11;;;;;;;1.52;0.75;;;;;;;17.94;51.73;101475.78;6365086;22;20022;-79
2021/04/10 01:16:01;;;;;;;2.10;0.90;;;;;;;17.94;51.72;101480.13;6362385;22;20006;-78
2021/04/10 01:18:58;;;;;;;1.20;0.70;;;;;;;17.92;51.73;101474.94;6361155;22;20009;-78
2021/04/10 01:21:34;;;;;;;1.73;0.90;;;;;;;17.93;51.72;101475.81;6376204;22;20008;-78
2021/04/10 01:24:47;;;;;;;1.20;0.70;;;;;;;17.92;51.75;101474.06;6393598;22;20013;-78
2021/04/10 01:27:39;;;;;;;3.05;0.90;;;;;;;17.93;51.45;101484.47;6382800;22;20006;-78
2021/04/10 01:32:56;;;;;;;1.33;0.70;;;;;;;17.91;51.67;101487.97;6355274;22;20361;-77
2021/04/10 01:35:25;;;;;;;1.77;0.80;;;;;;;17.91;51.53;101499.25;6339237;22;20019;-78
2021/04/10 01:38:13;;;;;;;2.33;0.88;;;;;;;17.92;51.46;101494.88;6364364;22;20054;-78
2021/04/10 01:40:40;;;;;;;2.10;0.90;;;;;;;17.91;51.44;101499.25;6362951;22;20007;-78
2021/04/10 01:43:11;;;;;;;1.88;0.90;;;;;;;17.88;51.38;101487.09;6337669;22;20033;-78
2021/04/10 01:45:37;;;;;;;2.05;0.80;;;;;;;17.87;51.73;101487.09;6363915;22;20006;-78
2021/04/10 01:48:11;;;;;;;3.67;1.00;;;;;;;17.86;51.43;101481.00;6309887;22;20010;-78
2021/04/10 01:50:43;;;;;;;1.73;0.90;;;;;;;17.88;51.60;101486.22;6364599;22;20003;-78
2021/04/10 01:53:10;;;;;;;1.10;0.68;;;;;;;17.87;51.60;101485.34;6337549;22;20003;-78
2021/04/10 01:55:49;;;;;;;1.92;1.08;;;;;;;17.88;51.50;101486.22;6315856;22;20007;-78
2021/04/10 01:58:17;;;;;;;2.10;0.82;;;;;;;17.87;51.72;101484.47;6339456;22;20041;-78
2021/04/10 02:01:21;;;;;;;2.83;0.95;;;;;;;17.87;51.55;101494.91;6330566;22;19995;-78
2021/04/10 02:03:57;;;;;;;1.88;0.70;;;;;;;17.88;51.92;101494.03;6355143;22;20013;-78
2021/04/10 02:06:26;;;;;;;2.03;1.00;;;;;;;17.86;51.42;101488.81;6325153;22;20426;-78
2021/04/10 02:09:13;;;;;;;1.25;0.73;;;;;;;17.87;51.63;101494.91;6322917;22;20004;-78
2021/04/10 02:11:49;;;;;;;1.52;0.82;;;;;;;17.85;51.64;101494.03;6301000;22;20010;-78
2021/04/10 02:14:16;;;;;;;2.58;0.73;;;;;;;17.86;51.50;101490.56;6324029;22;20007;-79
2021/04/10 02:17:34;;;;;;;1.60;0.80;;;;;;;17.85;51.56;101489.69;6302526;22;20003;-78
2021/04/10 02:20:12;;;;;;;2.53;1.00;;;;;;;17.85;51.60;101488.81;6331297;22;20032;-78
2021/04/10 02:22:57;;;;;;;1.98;0.90;;;;;;;17.86;51.26;101493.16;6349510;22;20077;-78
2021/04/10 02:25:31;;;;;;;1.35;0.75;;;;;;;17.86;51.48;101495.78;6359958;22;20002;-78
2021/04/10 02:28:08;;;;;;;1.55;0.70;;;;;;;17.85;51.52;101484.47;6384201;22;20017;-79
2021/04/10 02:30:41;;;;;;;1.42;0.65;;;;;;;17.82;51.36;101489.69;6392724;22;20018;-78
2021/04/10 02:33:47;;;;;;;1.30;0.80;;;;;;;17.84;51.57;101487.09;6368459;22;20002;-78
2021/04/10 02:36:45;;;;;;;1.80;0.60;;;;;;;17.84;51.44;101492.31;6366199;22;20035;-78
2021/04/10 02:39:14;;;;;;;1.77;0.68;;;;;;;17.83;51.37;101487.94;6263380;23;20012;-79
2021/04/10 02:41:47;;;;;;;1.83;0.68;;;;;;;17.84;51.37;101495.75;6206265;23;20379;-79
2021/04/10 02:44:24;;;;;;;1.25;0.60;;;;;;;17.84;51.40;101497.50;6255883;23;20094;-79
2021/04/10 02:47:00;;;;;;;1.23;0.70;;;;;;;17.82;51.45;101499.25;6259454;23;20011;-78
2021/04/10 02:49:31;;;;;;;1.45;0.70;;;;;;;17.83;51.38;101508.78;6260558;23;20023;-78
2021/04/10 02:52:07;;;;;;;2.42;0.75;;;;;;;17.83;51.30;101511.38;6260777;23;20059;-78
2021/04/10 02:57:46;;;;;;;1.63;0.70;;;;;;;17.82;51.39;101512.25;6344931;22;20029;-78
2021/04/10 03:00:31;;;;;;;1.27;0.70;;;;;;;17.79;51.26;101505.28;6364666;22;20005;-78
2021/04/10 03:03:25;;;;;;;1.98;0.70;;;;;;;17.78;51.29;101507.88;6363254;22;20003;-78
2021/04/10 03:05:58;;;;;;;1.35;0.52;;;;;;;17.79;51.42;101507.00;6326143;22;20083;-79
2021/04/10 03:08:26;;;;;;;1.33;0.60;;;;;;;17.78;51.22;101508.75;6333281;22;20007;-78
2021/04/10 03:11:31;;;;;;;1.50;0.70;;;;;;;17.80;51.46;101517.44;6332698;22;20019;-79
2021/04/10 03:14:17;;;;;;;2.22;0.82;;;;;;;17.78;51.23;101506.13;6336566;22;20085;-79
2021/04/10 03:17:02;;;;;;;1.67;0.80;;;;;;;17.78;51.37;101502.69;6330259;22;20033;-78
2021/04/10 03:22:20;;;;;;;1.98;0.70;;;;;;;17.77;51.24;101503.53;6370090;22;20013;-78
2021/04/10 03:28:19;;;;;;;1.20;0.60;;;;;;;17.79;51.30;101504.41;6395230;22;20077;-78
2021/04/10 03:30:50;;;;;;;1.48;0.57;;;;;;;17.76;51.26;101494.00;6353850;22;20040;-78
2021/04/10 03:33:17;;;;;;;1.75;0.68;;;;;;;17.77;51.31;101500.94;6359827;22;20437;-78
2021/04/10 03:38:49;;;;;;;1.35;0.70;;;;;;;17.77;51.23;101496.63;6361617;22;20012;-79
2021/04/10 03:41:15;;;;;;;1.08;0.60;;;;;;;17.75;51.08;101495.75;6362465;22;20022;-79
2021/04/10 03:43:41;;;;;;;1.23;0.60;;;;;;;17.75;51.33;101500.94;6336656;22;20011;-79
2021/04/10 03:46:10;;;;;;;1.33;0.60;;;;;;;17.72;51.26;101500.94;6358750;22;20005;-78
2021/04/10 03:48:38;;;;;;;1.38;0.68;;;;;;;17.74;51.34;101498.34;6338984;22;20007;-79
2021/04/10 03:51:15;;;;;;;1.67;0.70;;;;;;;17.73;51.22;101497.47;6337138;22;20010;-78
2021/04/10 03:53:43;;;;;;;1.02;0.60;;;;;;;17.72;51.20;101495.72;6363296;22;19994;-79
2021/04/10 03:56:12;;;;;;;1.02;0.65;;;;;;;17.70;51.37;101492.25;6357534;22;20024;-78
2021/04/10 03:58:45;;;;;;;1.92;0.70;;;;;;;17.72;51.35;101497.47;6336442;22;19999;-80
2021/04/10 04:01:19;;;;;;;1.63;0.60;;;;;;;17.73;51.26;101502.69;6366039;22;20031;-82
2021/04/10 04:03:47;;;;;;;1.40;0.70;;;;;;;17.73;51.20;101497.47;6357366;22;20003;-81
2021/04/10 04:06:31;;;;;;;1.60;0.80;;;;;;;17.72;51.12;101497.47;6315630;22;20035;-78
2021/04/10 04:09:33;;;;;;;0.63;0.50;;;;;;;17.71;51.20;101503.56;6359301;22;20090;-78
2021/04/10 04:15:21;;;;;;;1.17;0.60;;;;;;;17.72;51.18;101498.31;6362220;22;20041;-79
2021/04/10 04:17:51;;;;;;;1.20;0.60;;;;;;;17.71;51.13;101503.56;6332950;22;20012;-78
2021/04/10 04:20:18;;;;;;;1.15;0.60;;;;;;;17.69;51.26;101503.53;6354856;22;20036;-78
2021/04/10 04:22:57;;;;;;;1.40;0.60;;;;;;;17.71;51.13;101508.75;6390432;22;20006;-78
2021/04/10 04:25:31;;;;;;;1.17;0.52;;;;;;;17.69;51.37;101504.41;6355789;22;20063;-78
2021/04/10 04:28:03;;;;;;;2.17;0.60;;;;;;;17.67;51.35;101506.13;6395439;22;19982;-78
2021/04/10 04:30:29;;;;;;;1.10;0.52;;;;;;;17.70;51.13;101507.88;6362457;22;20220;-77
2021/04/10 04:33:01;;;;;;;1.05;0.60;;;;;;;17.68;51.41;101510.50;6327982;22;19995;-78
2021/04/10 04:35:33;;;;;;;1.27;0.60;;;;;;;17.67;51.23;101506.13;6304393;22;20008;-80
2021/04/10 04:37:59;;;;;;;1.98;0.45;;;;;;;17.67;51.24;101507.88;6330333;22;20003;-78
2021/04/10 04:40:44;;;;;;;0.82;0.55;;;;;;;17.68;51.32;101512.19;6322258;22;20003;-78
2021/04/10 04:43:11;;;;;;;0.70;0.52;;;;;;;17.66;51.03;101516.56;6324076;22;20085;-78
2021/04/10 04:45:40;;;;;;;2.28;0.50;;;;;;;17.67;51.29;101516.53;6289370;22;20004;-79
2021/04/10 04:51:30;;;;;;;0.93;0.50;;;;;;;17.66;51.09;101517.44;6341448;22;21293;-77
2021/04/10 04:53:57;;;;;;;1.40;0.70;;;;;;;17.65;51.28;101517.41;6332001;22;20023;-78
2021/04/10 04:56:24;;;;;;;0.85;0.40;;;;;;;17.65;51.35;101528.69;6311389;22;20026;-79
2021/04/10 04:59:14;;;;;;;1.25;0.70;;;;;;;17.64;51.24;101524.38;6332179;22;19979;-78
2021/04/10 05:01:41;;;;;;;1.63;0.60;;;;;;;17.63;51.22;101522.59;6331118;22;20011;-79
2021/04/10 05:04:08;;;;;;;1.58;0.60;;;;;;;17.63;51.10;101524.34;6348174;22;20007;-78
2021/04/10 05:06:36;;;;;;;1.63;0.60;;;;;;;17.63;51.11;101521.75;6328633;22;20014;-78
2021/04/10 05:09:02;;;;;;;2.50;0.80;;;;;;;17.62;51.14;101526.09;6269047;22;20019;-79
2021/04/10 05:11:47;;;;;;;1.27;0.50;;;;;;;17.63;51.21;101532.16;6304964;22;20006;-78
2021/04/10 05:14:14;;;;;;;1.27;0.50;;;;;;;17.64;51.40;101536.53;6306310;22;20022;-78
2021/04/10 05:16:47;;;;;;;1.20;0.60;;;;;;;17.62;51.09;101543.44;6307560;22;19987;-78
2021/04/10 05:19:23;;;;;;;1.77;0.68;;;;;;;17.64;51.22;101544.31;6332734;22;20003;-80
2021/04/10 05:24:27;;;;;;;1.98;0.85;;;;;;;17.63;51.06;101545.19;6336601;22;20004;-79
2021/04/10 05:26:53;;;;;;;0.98;0.60;;;;;;;17.60;51.01;101553.84;6308481;22;20015;-78
2021/04/10 05:29:29;;;;;;;1.05;0.60;;;;;;;17.60;51.32;101550.38;6321577;22;20033;-78
2021/04/10 05:31:57;;;;;;;0.95;0.50;;;;;;;17.61;51.24;101549.50;6340616;22;20023;-79
2021/04/10 05:34:48;;;;;;;1.40;0.60;;;;;;;17.63;51.05;101553.84;6362233;22;20026;-79
2021/04/10 05:37:14;;;;;;;1.52;0.57;;;;;;;17.62;51.03;101559.94;6362290;22;20037;-78
2021/04/10 05:40:02;;;;;;;1.45;0.55;;;;;;;17.62;51.16;101553.88;6365776;22;20054;-79
2021/04/10 05:42:35;;;;;;;2.38;0.70;;;;;;;17.61;51.03;101547.75;6362815;22;20033;-78
2021/04/10 05:47:41;;;;;;;1.30;0.60;;;;;;;17.64;51.02;101559.94;6373747;22;20026;-79
2021/04/10 05:50:23;;;;;;;1.42;0.70;;;;;;;17.63;50.92;101560.78;6396993;22;20032;-78
2021/04/10 05:52:49;;;;;;;1.27;0.63;;;;;;;17.63;51.01;101555.59;6394352;22;19998;-79
2021/04/10 05:55:33;;;;;;;0.95;0.52;;;;;;;17.65;50.91;101559.91;6315244;22;20088;-78
2021/04/10 05:58:36;;;;;;;1.52;0.55;;;;;;;17.71;50.74;101561.69;6393228;22;19999;-78
2021/04/10 06:03:33;;;;;;;0.98;0.45;;;;;;;17.76;50.55;101566.88;6360889;22;20019;-79
2021/04/10 06:06:37;;;;;;;1.73;0.60;;;;;;;17.79;50.63;101562.56;6362475;22;20078;-78
2021/04/10 06:09:25;;;;;;;1.38;0.60;;;;;;;17.85;50.21;101562.56;6362707;22;20010;-80
2021/04/10 06:12:13;;;;;;;1.65;0.70;;;;;;;17.89;50.20;101551.31;6364367;22;20009;-78
2021/04/10 06:14:40;;;;;;;1.40;0.60;;;;;;;17.98;50.02;101560.84;6360864;22;20011;-79
2021/04/10 06:17:06;;;;;;;1.10;0.50;;;;;;;18.05;49.86;101562.63;6333415;22;20032;-78
2021/04/10 06:19:31;;;;;;;1.90;0.50;;;;;;;18.11;49.56;101563.47;6350406;22;20006;-79
2021/04/10 06:22:04;;;;;;;3.25;0.45;;;;;;;18.17;49.46;101561.72;6389514;22;20009;-78
2021/04/10 06:24:31;;;;;;;5.20;0.70;;;;;;;18.23;49.40;101566.94;6361764;22;20063;-79
2021/04/10 06:27:06;;;;;;;4.30;0.47;;;;;;;18.26;49.57;101574.75;6389493;22;20006;-79
2021/04/10 06:29:43;;;;;;;1.52;0.63;;;;;;;18.27;49.60;101576.50;6387444;22;20430;-78
2021/04/10 06:32:24;;;;;;;3.50;0.70;;;;;;;18.27;49.45;101571.28;6386239;22;20040;-78
2021/04/10 06:34:52;;;;;;;0.93;0.50;;;;;;;18.31;49.54;101577.34;6390483;22;20054;-78
2021/04/10 06:37:20;;;;;;;0.70;0.50;;;;;;;18.44;49.23;101580.81;6387240;22;20353;-79
2021/04/10 06:39:53;;;;;;;2.25;0.88;;;;;;;18.50;49.14;101580.81;6359806;22;20041;-78
2021/04/10 06:42:24;;;;;;;1.65;0.70;;;;;;;18.40;49.23;101584.28;6385933;22;20002;-79
2021/04/10 06:44:51;;;;;;;1.35;0.50;;;;;;;18.30;49.72;101589.50;6386609;22;20007;-79
2021/04/10 06:47:22;;;;;;;0.85;0.50;;;;;;;18.23;49.71;101576.50;6379536;22;20006;-78
2021/04/10 06:50:01;;;;;;;2.08;0.70;;;;;;;18.17;50.13;101585.19;6379346;22;20006;-79
2021/04/10 06:52:28;;;;;;;2.38;0.47;;;;;;;18.15;50.26;101580.84;6380362;22;20328;-79
2021/04/10 06:55:14;;;;;;;0.93;0.50;;;;;;;18.13;50.17;101580.84;6370792;22;20465;-79
2021/04/10 06:58:06;;;;;;;1.92;0.68;;;;;;;18.14;50.08;101586.91;6324244;22;20019;-79
2021/04/10 07:00:44;;;;;;;0.98;0.57;;;;;;;18.11;50.21;101594.72;6354041;22;20070;-78
2021/04/10 07:03:13;;;;;;;1.15;0.55;;;;;;;18.07;50.46;101599.94;6328262;22;20041;-78
2021/04/10 07:05:40;;;;;;;0.90;0.50;;;;;;;18.04;50.65;101605.13;6333558;22;20014;-78
2021/04/10 07:08:16;;;;;;;1.23;0.77;;;;;;;18.02;50.51;101601.66;6335912;22;20032;-78
2021/04/10 07:10:43;;;;;;;1.25;0.60;;;;;;;18.02;50.75;101600.81;6366846;22;20025;-78
2021/04/10 07:13:10;;;;;;;2.17;0.68;;;;;;;18.02;50.64;101603.41;6396626;22;20014;-78
2021/04/10 07:19:15;;;;;;;2.20;0.68;;;;;;;18.00;50.83;101605.13;6387887;22;20014;-78
2021/04/10 07:21:50;;;;;;;2.95;0.60;;;;;;;18.01;50.77;101609.50;6395143;22;20018;-78
2021/04/10 07:24:35;;;;;;;3.47;0.75;;;;;;;17.99;50.57;101606.03;6392177;22;20038;-79
2021/04/10 07:27:03;;;;;;;1.67;0.57;;;;;;;18.02;50.73;101600.81;6384673;22;20089;-78
2021/04/10 07:29:37;;;;;;;1.38;0.70;;;;;;;18.03;50.68;101603.41;6395180;22;20048;-79
2021/04/10 07:32:41;;;;;;;1.13;0.50;;;;;;;18.00;50.84;101598.19;6393430;22;20013;-78
2021/04/10 07:35:48;;;;;;;1.58;0.70;;;;;;;18.06;50.64;101605.16;6366399;22;20017;-78
2021/04/10 07:38:27;;;;;;;0.88;0.60;;;;;;;17.99;50.90;101603.41;6391432;22;20013;-78
2021/04/10 07:41:02;;;;;;;1.10;0.60;;;;;;;18.18;50.99;101612.97;6340172;22;20036;-79
2021/04/10 07:43:32;;;;;;;3.67;0.85;;;;;;;18.26;50.77;101612.97;6392909;22;20024;-79
2021/04/10 07:46:16;;;;;;;2.80;0.52;;;;;;;18.30;50.84;101609.50;6364836;22;20013;-78
2021/04/10 07:49:23;;;;;;;1.45;0.80;;;;;;;18.27;50.94;101614.72;6357712;22;20022;-78
2021/04/10 07:55:33;;;;;;;5.78;1.00;;;;;;;18.27;51.24;101617.31;6392252;22;20013;-79
2021/04/10 07:58:36;;;;;;;7.53;1.80;;;;;;;18.26;50.95;101612.97;6391655;22;20010;-79
2021/04/10 08:01:10;;;;;;;9.75;2.50;;;;;;;18.27;51.35;101625.13;6392746;22;20009;-79
2021/04/10 08:03:43;;;;;;;;;;;;;;;18.27;51.32;101625.13;6392423;22;20002;-78
2021/04/10 08:06:13;;;;;;;4.32;2.15;;;;;;;18.27;51.38;101639.03;6365617;22;19902;-78
2021/04/10 08:08:56;;;;;;;5.03;1.90;;;;;;;18.30;51.19;101640.75;6394143;22;20050;-78
2021/04/10 08:11:46;;;;;;;7.78;1.95;;;;;;;18.27;51.30;101631.22;6369528;22;19991;-78
2021/04/10 08:14:14;;;;;;;4.22;1.70;;;;;;;18.30;51.06;101638.16;6316733;22;20011;-80
2021/04/10 08:17:17;;;;;;;4.55;1.45;;;;;;;18.33;51.04;101638.13;6392348;22;19994;-79
2021/04/10 08:19:42;;;;;;;3.83;1.50;;;;;;;18.34;51.09;101644.25;6391781;22;20006;-79
2021/04/10 08:22:17;;;;;;;2.72;1.20;;;;;;;18.34;51.17;101639.03;6390392;22;20011;-79
2021/04/10 08:24:43;;;;;;;3.20;1.27;;;;;;;18.32;51.18;101638.16;6337801;22;19998;-78
2021/04/10 08:27:29;;;;;;;3.78;1.48;;;;;;;18.30;51.14;101635.56;6365910;22;20018;-79
2021/04/10 08:29:55;;;;;;;3.15;1.30;;;;;;;18.33;51.06;101639.88;6391945;22;20121;-79
2021/04/10 08:32:34;;;;;;;2.83;1.15;;;;;;;18.33;51.03;101648.56;6387113;22;19998;-78
2021/04/10 08:35:03;;;;;;;3.60;1.23;;;;;;;18.36;51.15;101655.53;6335012;22;20018;-79
2021/04/10 08:37:32;;;;;;;2.50;1.20;;;;;;;18.33;51.21;101647.69;6361298;22;19987;-79
2021/04/10 08:40:04;;;;;;;8.25;1.50;;;;;;;18.34;51.42;101650.31;6335690;22;20033;-80
2021/04/10 08:42:33;;;;;;;6.03;1.40;;;;;;;18.38;51.45;101646.84;6333303;22;19999;-78
2021/04/10 08:45:01;;;;;;;10.45;1.30;;;;;;;18.37;51.52;101647.69;6358979;22;20433;-79
2021/04/10 08:47:29;;;;;;;3.22;1.40;;;;;;;18.39;51.14;101640.75;6359261;22;19998;-79
2021/04/10 08:49:55;;;;;;;3.38;1.38;;;;;;;18.40;51.45;101644.22;6357317;22;20319;-79
2021/04/10 08:52:28;;;;;;;2.58;1.23;;;;;;;18.39;51.23;101648.56;6355667;22;20478;-79
2021/04/10 08:54:54;;;;;;;4.47;1.20;;;;;;;18.37;51.46;101652.06;6331915;22;20006;-79
2021/04/10 08:57:40;;;;;;;4.53;1.20;;;;;;;18.36;51.46;101647.72;6359939;22;20002;-80
2021/04/10 09:00:44;;;;;;;3.08;1.27;;;;;;;18.38;51.39;101652.06;6360219;22;20006;-79
2021/04/10 09:03:10;;;;;;;5.13;1.20;;;;;;;18.36;51.29;101652.94;6331627;22;20006;-79
2021/04/10 09:05:56;;;;;;;4.25;1.10;;;;;;;18.38;51.32;101653.78;6360612;22;19998;-79
2021/04/10 09:08:27;;;;;;;1.88;0.95;;;;;;;18.39;51.22;101656.38;6334440;22;20010;-78
2021/04/10 09:11:06;;;;;;;4.05;1.17;;;;;;;18.39;50.84;101655.53;6335169;22;20006;-80
2021/04/10 09:13:56;;;;;;;15.90;1.30;;;;;;;18.40;51.43;101663.34;6361341;22;19999;-79
2021/04/10 09:19:27;;;;;;;7.13;1.30;;;;;;;18.41;51.28;101662.47;6360540;22;20046;-79
2021/04/10 09:21:55;;;;;;;4.07;1.20;;;;;;;18.40;51.23;101657.25;6358966;22;20049;-78
2021/04/10 09:24:31;;;;;;;8.23;1.20;;;;;;;18.62;51.30;101658.13;6333552;22;19999;-80
2021/04/10 09:27:36;;;;;;;12.68;1.40;;;;;;;18.59;51.30;101658.97;6362963;22;20044;-80
2021/04/10 09:33:30;;;;;;;7.18;1.17;;;;;;;18.54;51.19;101652.06;6367367;22;20018;-81
2021/04/10 09:35:58;;;;;;;23.27;1.67;;;;;;;18.47;51.29;101656.41;6332221;22;20058;-80
2021/04/10 09:38:47;;;;;;;8.18;1.30;;;;;;;18.43;51.38;101642.50;6366106;22;20028;-80
2021/04/10 09:41:33;;;;;;;6.28;1.10;;;;;;;18.40;51.52;101629.47;6312661;22;20007;-80
2021/04/10 09:44:13;;;;;;;4.80;1.00;;;;;;;18.37;51.29;101631.19;6251662;23;20008;-81
2021/04/10 09:47:04;;;;;;;4.20;1.00;;;;;;;18.37;51.72;101641.63;6270977;22;20004;-79
2021/04/10 09:50:09;;;;;;;5.93;1.30;;;;;;;18.37;51.38;101645.09;6269983;23;20008;-82
2021/04/10 09:52:36;;;;;;;;;;;;;;;18.37;51.59;101652.06;6271644;22;20026;-80
2021/04/10 09:55:04;;;;;;;3.63;1.08;;;;;;;18.36;51.36;101647.72;6244009;23;19959;-83
2021/04/10 09:57:53;;;;;;;3.53;1.35;;;;;;;18.34;51.50;101641.63;6329000;22;20032;-80
2021/04/10 10:00:37;;;;;;;4.80;1.23;;;;;;;18.35;51.28;101639.00;6381639;22;20615;-80
2021/04/10 10:06:22;;;;;;;2.25;1.00;;;;;;;18.33;51.61;101638.13;6390301;22;20086;-79
2021/04/10 10:08:53;;;;;;;4.43;1.27;;;;;;;18.35;51.43;101636.41;6391410;22;20026;-80
2021/04/10 10:12:06;;;;;;;5.43;1.00;;;;;;;18.36;51.42;101634.69;6389783;22;19998;-80
2021/04/10 10:21:08;;;;;;;2.25;1.05;;;;;;;18.35;51.35;101625.13;6347678;22;20028;-79
2021/04/10 10:24:00;;;;;;;3.33;0.90;;;;;;;18.36;51.28;101626.88;6395051;22;19999;-80
2021/04/10 10:26:30;;;;;;;2.28;0.82;;;;;;;18.34;51.25;101624.25;6398817;22;20030;-84
2021/04/10 10:29:08;;;;;;;3.08;1.08;;;;;;;18.37;51.10;101631.19;6370142;22;20023;-81
2021/04/10 10:32:00;;;;;;;3.47;0.90;;;;;;;18.37;51.18;101626.84;6366278;22;20002;-83
2021/04/10 10:34:50;;;;;;;2.30;0.90;;;;;;;18.36;51.12;101617.31;6396015;22;20065;-82
2021/04/10 10:37:32;;;;;;;5.17;1.30;;;;;;;18.36;51.26;101613.84;6397336;22;20006;-80
2021/04/10 10:40:26;;;;;;;2.28;1.05;;;;;;;18.38;51.20;101612.06;6386994;22;20013;-81
2021/04/10 10:53:30;;;;;;;2.38;1.05;;;;;;;18.37;51.24;101598.19;6361410;22;20044;-81
2021/04/10 10:56:25;;;;;;;1.88;0.88;;;;;;;18.41;51.12;101599.94;6397411;22;20078;-82
2021/04/10 10:59:09;;;;;;;2.00;0.98;;;;;;;18.39;51.24;101601.66;6393971;22;20030;-85
2021/04/10 11:01:38;;;;;;;3.50;1.17;;;;;;;18.41;51.24;101601.66;6372889;22;20054;-86
2021/04/10 11:11:09;;;;;;;1.58;0.95;;;;;;;18.42;51.28;101593.88;6398474;22;20025;-79
2021/04/10 11:14:03;;;;;;;3.08;0.80;;;;;;;18.42;51.03;101585.16;6392728;22;20006;-79
2021/04/10 11:17:18;;;;;;;2.72;0.90;;;;;;;18.41;51.19;101586.03;6386920;22;20018;-79
2021/04/10 11:20:29;;;;;;;2.78;1.00;;;;;;;18.43;50.92;101579.09;6363172;22;20014;-82
2021/04/10 11:23:02;;;;;;;1.52;1.00;;;;;;;18.44;50.79;101568.66;6301765;22;20053;-80
2021/04/10 11:26:04;;;;;;;2.60;1.17;;;;;;;18.49;50.94;101566.06;6320927;22;20023;-80
2021/04/10 11:28:34;;;;;;;2.58;1.17;;;;;;;18.53;50.75;101562.56;6189537;23;20012;-80
2021/04/10 11:31:16;;;;;;;2.03;1.10;;;;;;;18.56;50.56;101565.16;6303135;22;20023;-79
2021/04/10 11:33:44;;;;;;;;;;;;;;;18.57;51.04;101553.00;6267210;22;20307;-80
2021/04/10 11:36:12;;;;;;;3.03;1.80;;;;;;;18.57;51.02;101561.66;6305831;22;19918;-80
2021/04/10 11:39:03;;;;;;;3.50;2.05;;;;;;;18.54;51.19;101550.41;6282110;22;20006;-80
2021/04/10 11:41:54;;;;;;;2.80;1.70;;;;;;;18.55;50.85;101552.13;6360547;22;20003;-79
2021/04/10 11:44:40;;;;;;;4.32;2.00;;;;;;;18.53;50.99;101540.81;6358295;22;20014;-80
2021/04/10 11:47:08;;;;;;;4.60;2.00;;;;;;;18.53;51.38;101539.13;6326915;22;20019;-79
2021/04/10 11:50:04;;;;;;;3.90;1.90;;;;;;;18.53;51.19;101540.81;6277711;22;20015;-79
2021/04/10 11:53:08;;;;;;;3.50;2.10;;;;;;;18.52;51.15;101537.38;6355739;22;20033;-79
2021/04/10 11:56:11;;;;;;;3.08;1.80;;;;;;;18.53;51.26;101533.91;6362434;22;20036;-80
2021/04/10 11:58:43;;;;;;;3.28;1.95;;;;;;;18.50;50.99;101524.31;6362171;22;20009;-79
2021/04/10 12:01:28;;;;;;;4.07;2.08;;;;;;;18.53;51.29;101530.41;6361396;22;20006;-79
2021/04/10 12:04:16;;;;;;;4.60;1.77;;;;;;;18.51;51.05;101530.44;6361399;22;20460;-80
2021/04/10 12:10:04;;;;;;;3.90;1.70;;;;;;;18.53;51.21;101526.09;6361897;22;20060;-81
2021/04/10 12:12:33;;;;;;;3.15;2.22;;;;;;;18.53;50.76;101527.78;6357020;22;20022;-80
2021/04/10 12:15:06;;;;;;;2.58;1.70;;;;;;;18.55;51.18;101531.28;6363770;22;20472;-78
2021/04/10 12:17:39;;;;;;;4.57;1.70;;;;;;;18.52;50.72;101518.25;6381768;22;20003;-79
2021/04/10 12:20:25;;;;;;;4.13;2.03;;;;;;;18.55;51.25;101515.63;6392185;22;19998;-80
2021/04/10 12:23:01;;;;;;;8.07;2.00;;;;;;;17.34;74.38;101525.19;6393383;22;20013;-80
2021/04/10 12:25:38;;;;;;;4.72;1.60;;;;;;;16.82;75.62;101523.25;6393692;22;19986;-80
2021/04/10 12:28:45;;;;;;;4.10;1.70;;;;;;;16.77;77.51;101526.69;6390520;22;20025;-81
2021/04/10 12:32:03;;;;;;;4.13;1.80;;;;;;;16.57;73.69;101516.16;6374395;22;20086;-82
2021/04/10 13:08:31;;;;;;;3.53;0.98;;;;;;;17.39;61.41;101491.34;6352328;22;20027;-80
2021/04/10 13:11:06;;;;;;;3.35;1.20;;;;;;;17.37;61.58;101493.09;6363033;22;20018;-79
2021/04/10 13:13:32;;;;;;;2.88;1.40;;;;;;;17.44;60.62;101494.81;6335607;22;20033;-79
2021/04/10 13:15:58;;;;;;;2.40;1.10;;;;;;;17.47;60.38;101508.72;6364094;22;20003;-79
2021/04/10 13:18:36;;;;;;;3.13;1.23;;;;;;;17.43;60.31;101493.97;6311709;22;20037;-79
2021/04/10 13:21:10;;;;;;;2.33;1.30;;;;;;;17.46;59.23;101499.19;6363774;22;20014;-80
2021/04/10 13:23:47;;;;;;;3.38;1.10;;;;;;;17.51;59.19;101500.91;6335793;22;20007;-79
2021/04/10 13:26:14;;;;;;;1.58;1.08;;;;;;;17.47;59.62;101487.03;6367158;22;20077;-79
2021/04/10 13:28:52;;;;;;;3.15;0.90;;;;;;;17.45;59.59;101492.22;6395796;22;20018;-80
2021/04/10 13:31:40;;;;;;;3.72;1.20;;;;;;;17.49;59.05;101485.31;6365448;22;20017;-80
2021/04/10 13:39:37;;;;;;;2.10;1.33;;;;;;;17.48;59.38;101475.75;6379649;22;20033;-80
2021/04/10 13:42:04;;;;;;;1.87;1.27;;;;;;;17.50;59.31;101480.97;6389411;22;20082;-80
2021/04/10 13:44:54;;;;;;;2.53;1.15;;;;;;;17.50;59.01;101475.75;6361985;22;20021;-81
2021/04/10 13:47:20;;;;;;;2.67;1.10;;;;;;;17.55;59.38;101479.22;6269159;22;20004;-81
2021/04/10 13:52:22;;;;;;;2.42;1.10;;;;;;;17.56;57.96;101470.56;6339837;22;20023;-80
2021/04/10 13:54:49;;;;;;;3.58;1.25;;;;;;;17.58;58.30;101472.31;6356504;22;20011;-79
2021/04/10 13:57:46;;;;;;;3.10;1.00;;;;;;;17.60;58.72;101469.72;6336037;22;20059;-80
2021/04/10 14:00:56;;;;;;;3.00;1.00;;;;;;;17.59;58.00;101468.81;6325974;22;19999;-80
2021/04/10 14:04:01;;;;;;;3.20;1.08;;;;;;;17.63;57.81;101454.94;6362923;22;20007;-79
2021/04/10 14:06:34;;;;;;;2.67;1.20;;;;;;;17.66;57.34;101446.28;6363383;22;20011;-79
2021/04/10 14:09:19;;;;;;;4.80;1.10;;;;;;;17.65;58.06;101461.00;6319795;22;20010;-80
2021/04/10 14:11:45;;;;;;;4.43;1.20;;;;;;;17.67;57.32;101448.88;6331817;22;20022;-80
2021/04/10 14:14:13;;;;;;;2.05;1.00;;;;;;;17.67;57.75;101451.47;6333493;22;20015;-80